sensor_id;sensor_type;location;lat;lon;timestamp;P1;durP1;ratioP1;P2;durP2;ratioP2
11439;SDS011;5776;51.814;4.510;2023-11-21T00:01:35;6.87;;;4.30;;
11439;SDS011;5776;51.814;4.510;2023-11-21T00:04:01;4.73;;;2.93;;
11439;SDS011;5776;51.814;4.510;2023-11-21T00:06:27;8.17;;;4.37;;
11439;SDS011;5776;51.814;4.510;2023-11-21T00:08:54;8.57;;;4.27;;
11439;SDS011;5776;51.814;4.510;2023-11-21T00:11:20;7.20;;;4.20;;
11439;SDS011;5776;51.814;4.510;2023-11-21T00:13:46;8.13;;;4.63;;
11439;SDS011;5776;51.814;4.510;2023-11-21T00:16:13;8.77;;;5.20;;
11439;SDS011;5776;51.814;4.510;2023-11-21T00:18:39;9.70;;;4.83;;
11439;SDS011;5776;51.814;4.510;2023-11-21T00:21:05;10.07;;;5.00;;
11439;SDS011;5776;51.814;4.510;2023-11-21T00:23:31;9.23;;;4.43;;
11439;SDS011;5776;51.814;4.510;2023-11-21T00:25:58;10.43;;;4.80;;
11439;SDS011;5776;51.814;4.510;2023-11-21T00:28:25;11.30;;;4.83;;
11439;SDS011;5776;51.814;4.510;2023-11-21T00:30:51;7.57;;;4.33;;
11439;SDS011;5776;51.814;4.510;2023-11-21T00:33:17;7.70;;;4.43;;
11439;SDS011;5776;51.814;4.510;2023-11-21T00:35:43;10.03;;;4.77;;
11439;SDS011;5776;51.814;4.510;2023-11-21T00:38:09;8.67;;;5.07;;
11439;SDS011;5776;51.814;4.510;2023-11-21T00:40:35;6.77;;;4.00;;
11439;SDS011;5776;51.814;4.510;2023-11-21T00:43:01;12.63;;;4.57;;
11439;SDS011;5776;51.814;4.510;2023-11-21T00:45:27;8.17;;;4.20;;
11439;SDS011;5776;51.814;4.510;2023-11-21T00:47:52;7.77;;;3.60;;
11439;SDS011;5776;51.814;4.510;2023-11-21T00:50:18;6.73;;;3.93;;
11439;SDS011;5776;51.814;4.510;2023-11-21T00:52:44;5.47;;;2.87;;
11439;SDS011;5776;51.814;4.510;2023-11-21T00:55:10;8.10;;;4.47;;
11439;SDS011;5776;51.814;4.510;2023-11-21T00:57:37;12.03;;;4.50;;
11439;SDS011;5776;51.814;4.510;2023-11-21T01:00:03;10.87;;;4.30;;
11439;SDS011;5776;51.814;4.510;2023-11-21T01:02:43;8.87;;;4.03;;
11439;SDS011;5776;51.814;4.510;2023-11-21T01:05:12;9.33;;;4.03;;
11439;SDS011;5776;51.814;4.510;2023-11-21T01:07:40;4.80;;;2.90;;
11439;SDS011;5776;51.814;4.510;2023-11-21T01:10:06;7.10;;;3.87;;
11439;SDS011;5776;51.814;4.510;2023-11-21T01:12:36;7.57;;;3.93;;
11439;SDS011;5776;51.814;4.510;2023-11-21T01:15:03;6.90;;;3.17;;
11439;SDS011;5776;51.814;4.510;2023-11-21T01:17:32;5.13;;;3.13;;
11439;SDS011;5776;51.814;4.510;2023-11-21T01:20:00;8.40;;;4.30;;
11439;SDS011;5776;51.814;4.510;2023-11-21T01:22:32;7.93;;;4.40;;
11439;SDS011;5776;51.814;4.510;2023-11-21T01:24:59;11.00;;;4.63;;
11439;SDS011;5776;51.814;4.510;2023-11-21T01:27:26;13.80;;;4.47;;
11439;SDS011;5776;51.814;4.510;2023-11-21T01:29:52;11.87;;;4.33;;
11439;SDS011;5776;51.814;4.510;2023-11-21T01:32:19;6.30;;;3.50;;
11439;SDS011;5776;51.814;4.510;2023-11-21T01:34:44;7.83;;;4.07;;
11439;SDS011;5776;51.814;4.510;2023-11-21T01:37:10;10.70;;;3.60;;
11439;SDS011;5776;51.814;4.510;2023-11-21T01:39:37;9.27;;;3.80;;
11439;SDS011;5776;51.814;4.510;2023-11-21T01:42:04;6.90;;;3.70;;
11439;SDS011;5776;51.814;4.510;2023-11-21T01:44:30;6.43;;;3.70;;
11439;SDS011;5776;51.814;4.510;2023-11-21T01:46:56;8.53;;;3.03;;
11439;SDS011;5776;51.814;4.510;2023-11-21T01:49:22;9.87;;;3.17;;
11439;SDS011;5776;51.814;4.510;2023-11-21T01:51:49;6.80;;;2.87;;
11439;SDS011;5776;51.814;4.510;2023-11-21T01:54:16;7.97;;;3.17;;
11439;SDS011;5776;51.814;4.510;2023-11-21T01:56:45;6.90;;;2.50;;
11439;SDS011;5776;51.814;4.510;2023-11-21T01:59:17;8.10;;;3.10;;
11439;SDS011;5776;51.814;4.510;2023-11-21T02:01:48;5.97;;;2.80;;
11439;SDS011;5776;51.814;4.510;2023-11-21T02:04:15;5.00;;;2.53;;
11439;SDS011;5776;51.814;4.510;2023-11-21T02:06:41;6.90;;;2.87;;
11439;SDS011;5776;51.814;4.510;2023-11-21T02:09:07;9.23;;;2.73;;
11439;SDS011;5776;51.814;4.510;2023-11-21T02:11:34;5.23;;;2.63;;
11439;SDS011;5776;51.814;4.510;2023-11-21T02:14:01;9.03;;;2.73;;
11439;SDS011;5776;51.814;4.510;2023-11-21T02:16:27;7.53;;;2.90;;
11439;SDS011;5776;51.814;4.510;2023-11-21T02:18:53;6.27;;;2.90;;
11439;SDS011;5776;51.814;4.510;2023-11-21T02:21:19;6.33;;;2.50;;
11439;SDS011;5776;51.814;4.510;2023-11-21T02:23:45;7.93;;;2.60;;
11439;SDS011;5776;51.814;4.510;2023-11-21T02:26:12;8.10;;;2.70;;
11439;SDS011;5776;51.814;4.510;2023-11-21T02:28:39;4.20;;;2.23;;
11439;SDS011;5776;51.814;4.510;2023-11-21T02:31:06;5.27;;;2.33;;
11439;SDS011;5776;51.814;4.510;2023-11-21T02:33:33;6.73;;;2.43;;
11439;SDS011;5776;51.814;4.510;2023-11-21T02:36:00;3.90;;;2.37;;
11439;SDS011;5776;51.814;4.510;2023-11-21T02:38:26;4.90;;;2.23;;
11439;SDS011;5776;51.814;4.510;2023-11-21T02:40:52;8.80;;;2.90;;
11439;SDS011;5776;51.814;4.510;2023-11-21T02:43:19;4.77;;;2.13;;
11439;SDS011;5776;51.814;4.510;2023-11-21T02:45:44;6.90;;;2.13;;
11439;SDS011;5776;51.814;4.510;2023-11-21T02:48:10;5.17;;;2.00;;
11439;SDS011;5776;51.814;4.510;2023-11-21T02:50:37;7.10;;;2.67;;
11439;SDS011;5776;51.814;4.510;2023-11-21T02:53:03;4.47;;;2.20;;
11439;SDS011;5776;51.814;4.510;2023-11-21T02:55:31;3.70;;;2.37;;
11439;SDS011;5776;51.814;4.510;2023-11-21T02:58:00;8.87;;;2.40;;
11439;SDS011;5776;51.814;4.510;2023-11-21T03:00:26;5.63;;;2.07;;
11439;SDS011;5776;51.814;4.510;2023-11-21T03:02:53;4.83;;;2.27;;
11439;SDS011;5776;51.814;4.510;2023-11-21T03:05:20;6.87;;;2.07;;
11439;SDS011;5776;51.814;4.510;2023-11-21T03:07:46;5.43;;;2.17;;
11439;SDS011;5776;51.814;4.510;2023-11-21T03:10:12;6.20;;;2.50;;
11439;SDS011;5776;51.814;4.510;2023-11-21T03:12:38;3.90;;;2.33;;
11439;SDS011;5776;51.814;4.510;2023-11-21T03:15:05;3.70;;;2.30;;
11439;SDS011;5776;51.814;4.510;2023-11-21T03:17:34;5.17;;;2.37;;
11439;SDS011;5776;51.814;4.510;2023-11-21T03:20:00;6.53;;;2.57;;
11439;SDS011;5776;51.814;4.510;2023-11-21T03:22:26;7.30;;;2.33;;
11439;SDS011;5776;51.814;4.510;2023-11-21T03:24:52;6.50;;;2.60;;
11439;SDS011;5776;51.814;4.510;2023-11-21T03:27:18;6.37;;;2.60;;
11439;SDS011;5776;51.814;4.510;2023-11-21T03:29:44;4.97;;;2.20;;
11439;SDS011;5776;51.814;4.510;2023-11-21T03:32:12;5.13;;;2.40;;
11439;SDS011;5776;51.814;4.510;2023-11-21T03:34:52;4.97;;;2.40;;
11439;SDS011;5776;51.814;4.510;2023-11-21T03:37:23;8.17;;;2.20;;
11439;SDS011;5776;51.814;4.510;2023-11-21T03:39:50;7.10;;;2.57;;
11439;SDS011;5776;51.814;4.510;2023-11-21T03:42:16;5.53;;;2.53;;
11439;SDS011;5776;51.814;4.510;2023-11-21T03:44:42;6.63;;;2.43;;
11439;SDS011;5776;51.814;4.510;2023-11-21T03:47:09;6.40;;;2.60;;
11439;SDS011;5776;51.814;4.510;2023-11-21T03:49:36;6.60;;;2.27;;
11439;SDS011;5776;51.814;4.510;2023-11-21T03:52:03;3.87;;;2.10;;
11439;SDS011;5776;51.814;4.510;2023-11-21T03:54:29;5.47;;;2.83;;
11439;SDS011;5776;51.814;4.510;2023-11-21T03:56:55;6.87;;;2.90;;
11439;SDS011;5776;51.814;4.510;2023-11-21T03:59:21;7.13;;;2.40;;
11439;SDS011;5776;51.814;4.510;2023-11-21T04:01:50;4.30;;;2.37;;
11439;SDS011;5776;51.814;4.510;2023-11-21T04:04:16;7.07;;;2.37;;
11439;SDS011;5776;51.814;4.510;2023-11-21T04:06:42;8.70;;;2.70;;
11439;SDS011;5776;51.814;4.510;2023-11-21T04:09:07;6.07;;;2.40;;
11439;SDS011;5776;51.814;4.510;2023-11-21T04:11:34;7.30;;;2.40;;
11439;SDS011;5776;51.814;4.510;2023-11-21T04:14:00;4.13;;;2.23;;
11439;SDS011;5776;51.814;4.510;2023-11-21T04:16:26;6.13;;;2.13;;
11439;SDS011;5776;51.814;4.510;2023-11-21T04:18:52;7.70;;;2.30;;
11439;SDS011;5776;51.814;4.510;2023-11-21T04:21:17;6.20;;;2.87;;
11439;SDS011;5776;51.814;4.510;2023-11-21T04:23:45;6.67;;;2.00;;
11439;SDS011;5776;51.814;4.510;2023-11-21T04:26:10;4.90;;;1.97;;
11439;SDS011;5776;51.814;4.510;2023-11-21T04:28:37;6.60;;;2.77;;
11439;SDS011;5776;51.814;4.510;2023-11-21T04:31:04;5.40;;;2.50;;
11439;SDS011;5776;51.814;4.510;2023-11-21T04:33:30;7.80;;;2.60;;
11439;SDS011;5776;51.814;4.510;2023-11-21T04:35:57;5.53;;;2.27;;
11439;SDS011;5776;51.814;4.510;2023-11-21T04:38:23;7.37;;;2.93;;
11439;SDS011;5776;51.814;4.510;2023-11-21T04:40:48;5.07;;;2.47;;
11439;SDS011;5776;51.814;4.510;2023-11-21T04:43:14;6.00;;;2.90;;
11439;SDS011;5776;51.814;4.510;2023-11-21T04:45:40;6.13;;;2.60;;
11439;SDS011;5776;51.814;4.510;2023-11-21T04:48:06;6.33;;;2.83;;
11439;SDS011;5776;51.814;4.510;2023-11-21T04:50:34;4.77;;;2.73;;
11439;SDS011;5776;51.814;4.510;2023-11-21T04:53:00;4.87;;;2.77;;
11439;SDS011;5776;51.814;4.510;2023-11-21T04:55:26;2.70;;;2.30;;
11439;SDS011;5776;51.814;4.510;2023-11-21T04:57:53;7.97;;;2.97;;
11439;SDS011;5776;51.814;4.510;2023-11-21T05:00:20;3.97;;;2.63;;
11439;SDS011;5776;51.814;4.510;2023-11-21T05:02:47;4.83;;;2.47;;
11439;SDS011;5776;51.814;4.510;2023-11-21T05:05:12;5.00;;;2.57;;
11439;SDS011;5776;51.814;4.510;2023-11-21T05:07:39;6.10;;;2.93;;
11439;SDS011;5776;51.814;4.510;2023-11-21T05:10:07;4.03;;;2.63;;
11439;SDS011;5776;51.814;4.510;2023-11-21T05:12:36;7.90;;;2.57;;
11439;SDS011;5776;51.814;4.510;2023-11-21T05:15:05;7.07;;;2.60;;
11439;SDS011;5776;51.814;4.510;2023-11-21T05:17:38;6.90;;;3.20;;
11439;SDS011;5776;51.814;4.510;2023-11-21T05:20:08;4.23;;;2.40;;
11439;SDS011;5776;51.814;4.510;2023-11-21T05:22:35;5.30;;;2.80;;
11439;SDS011;5776;51.814;4.510;2023-11-21T05:25:02;5.90;;;3.03;;
11439;SDS011;5776;51.814;4.510;2023-11-21T05:27:33;6.70;;;2.90;;
11439;SDS011;5776;51.814;4.510;2023-11-21T05:30:00;3.90;;;2.80;;
11439;SDS011;5776;51.814;4.510;2023-11-21T05:32:28;2.37;;;1.43;;
11439;SDS011;5776;51.814;4.510;2023-11-21T05:34:54;5.37;;;2.47;;
11439;SDS011;5776;51.814;4.510;2023-11-21T05:37:20;7.67;;;3.20;;
11439;SDS011;5776;51.814;4.510;2023-11-21T05:39:46;5.07;;;2.70;;
11439;SDS011;5776;51.814;4.510;2023-11-21T05:42:12;8.03;;;2.60;;
11439;SDS011;5776;51.814;4.510;2023-11-21T05:44:38;4.13;;;2.40;;
11439;SDS011;5776;51.814;4.510;2023-11-21T05:47:07;4.73;;;2.70;;
11439;SDS011;5776;51.814;4.510;2023-11-21T05:49:34;8.43;;;3.03;;
11439;SDS011;5776;51.814;4.510;2023-11-21T05:52:00;5.33;;;2.53;;
11439;SDS011;5776;51.814;4.510;2023-11-21T05:54:26;4.70;;;2.90;;
11439;SDS011;5776;51.814;4.510;2023-11-21T05:56:52;8.20;;;3.13;;
11439;SDS011;5776;51.814;4.510;2023-11-21T05:59:18;6.43;;;3.33;;
11439;SDS011;5776;51.814;4.510;2023-11-21T06:01:45;3.97;;;2.77;;
11439;SDS011;5776;51.814;4.510;2023-11-21T06:04:11;4.87;;;2.93;;
11439;SDS011;5776;51.814;4.510;2023-11-21T06:06:38;9.27;;;3.67;;
11439;SDS011;5776;51.814;4.510;2023-11-21T06:09:04;4.97;;;2.90;;
11439;SDS011;5776;51.814;4.510;2023-11-21T06:11:31;4.07;;;2.90;;
11439;SDS011;5776;51.814;4.510;2023-11-21T06:13:57;5.73;;;3.00;;
11439;SDS011;5776;51.814;4.510;2023-11-21T06:16:23;6.07;;;2.60;;
11439;SDS011;5776;51.814;4.510;2023-11-21T06:18:49;7.93;;;3.20;;
11439;SDS011;5776;51.814;4.510;2023-11-21T06:21:15;5.70;;;2.87;;
11439;SDS011;5776;51.814;4.510;2023-11-21T06:23:43;5.80;;;2.97;;
11439;SDS011;5776;51.814;4.510;2023-11-21T06:26:09;5.27;;;3.47;;
11439;SDS011;5776;51.814;4.510;2023-11-21T06:28:35;5.20;;;2.90;;
11439;SDS011;5776;51.814;4.510;2023-11-21T06:31:02;5.83;;;3.33;;
11439;SDS011;5776;51.814;4.510;2023-11-21T06:33:33;4.93;;;3.37;;
11439;SDS011;5776;51.814;4.510;2023-11-21T06:36:00;6.50;;;3.40;;
11439;SDS011;5776;51.814;4.510;2023-11-21T06:38:28;5.43;;;3.50;;
11439;SDS011;5776;51.814;4.510;2023-11-21T06:40:58;9.60;;;3.97;;
11439;SDS011;5776;51.814;4.510;2023-11-21T06:43:24;6.87;;;3.77;;
11439;SDS011;5776;51.814;4.510;2023-11-21T06:45:51;5.80;;;3.53;;
11439;SDS011;5776;51.814;4.510;2023-11-21T06:48:18;8.23;;;3.63;;
11439;SDS011;5776;51.814;4.510;2023-11-21T06:50:44;6.63;;;3.73;;
11439;SDS011;5776;51.814;4.510;2023-11-21T06:53:10;5.20;;;3.23;;
11439;SDS011;5776;51.814;4.510;2023-11-21T06:55:36;5.67;;;3.67;;
11439;SDS011;5776;51.814;4.510;2023-11-21T06:58:02;6.17;;;3.83;;
11439;SDS011;5776;51.814;4.510;2023-11-21T07:00:29;5.17;;;3.60;;
11439;SDS011;5776;51.814;4.510;2023-11-21T07:02:55;6.33;;;3.80;;
11439;SDS011;5776;51.814;4.510;2023-11-21T07:05:21;5.63;;;3.60;;
11439;SDS011;5776;51.814;4.510;2023-11-21T07:07:48;6.47;;;3.47;;
11439;SDS011;5776;51.814;4.510;2023-11-21T07:10:14;5.13;;;3.07;;
11439;SDS011;5776;51.814;4.510;2023-11-21T07:12:41;4.57;;;3.03;;
11439;SDS011;5776;51.814;4.510;2023-11-21T07:15:07;5.00;;;2.80;;
11439;SDS011;5776;51.814;4.510;2023-11-21T07:17:35;5.30;;;3.23;;
11439;SDS011;5776;51.814;4.510;2023-11-21T07:20:01;4.43;;;3.20;;
11439;SDS011;5776;51.814;4.510;2023-11-21T07:22:28;4.50;;;2.93;;
11439;SDS011;5776;51.814;4.510;2023-11-21T07:24:55;4.57;;;2.87;;
11439;SDS011;5776;51.814;4.510;2023-11-21T07:27:22;4.97;;;3.20;;
11439;SDS011;5776;51.814;4.510;2023-11-21T07:29:48;4.53;;;3.00;;
11439;SDS011;5776;51.814;4.510;2023-11-21T07:32:15;5.60;;;2.67;;
11439;SDS011;5776;51.814;4.510;2023-11-21T07:34:41;5.33;;;2.80;;
11439;SDS011;5776;51.814;4.510;2023-11-21T07:37:07;3.63;;;2.77;;
11439;SDS011;5776;51.814;4.510;2023-11-21T07:39:34;7.13;;;3.10;;
11439;SDS011;5776;51.814;4.510;2023-11-21T07:42:02;8.47;;;2.77;;
11439;SDS011;5776;51.814;4.510;2023-11-21T07:44:29;3.73;;;2.10;;
11439;SDS011;5776;51.814;4.510;2023-11-21T07:46:55;6.77;;;2.63;;
11439;SDS011;5776;51.814;4.510;2023-11-21T07:49:23;4.57;;;2.30;;
11439;SDS011;5776;51.814;4.510;2023-11-21T07:51:50;3.10;;;1.80;;
11439;SDS011;5776;51.814;4.510;2023-11-21T07:54:16;3.80;;;2.10;;
11439;SDS011;5776;51.814;4.510;2023-11-21T07:56:42;7.87;;;2.80;;
11439;SDS011;5776;51.814;4.510;2023-11-21T07:59:07;4.73;;;2.50;;
11439;SDS011;5776;51.814;4.510;2023-11-21T08:01:33;7.80;;;2.53;;
11439;SDS011;5776;51.814;4.510;2023-11-21T08:04:00;6.03;;;2.47;;
11439;SDS011;5776;51.814;4.510;2023-11-21T08:06:29;4.83;;;2.27;;
11439;SDS011;5776;51.814;4.510;2023-11-21T08:08:56;8.97;;;4.07;;
11439;SDS011;5776;51.814;4.510;2023-11-21T08:11:22;8.53;;;3.03;;
11439;SDS011;5776;51.814;4.510;2023-11-21T08:13:48;12.70;;;4.60;;
11439;SDS011;5776;51.814;4.510;2023-11-21T08:16:15;4.57;;;2.43;;
11439;SDS011;5776;51.814;4.510;2023-11-21T08:18:42;12.30;;;4.43;;
11439;SDS011;5776;51.814;4.510;2023-11-21T08:21:07;7.60;;;2.93;;
11439;SDS011;5776;51.814;4.510;2023-11-21T08:23:34;6.87;;;2.30;;
11439;SDS011;5776;51.814;4.510;2023-11-21T08:26:00;6.17;;;2.53;;
11439;SDS011;5776;51.814;4.510;2023-11-21T08:28:25;3.70;;;2.20;;
11439;SDS011;5776;51.814;4.510;2023-11-21T08:30:52;4.20;;;2.27;;
11439;SDS011;5776;51.814;4.510;2023-11-21T08:33:20;8.67;;;2.90;;
11439;SDS011;5776;51.814;4.510;2023-11-21T08:35:46;7.00;;;2.50;;
11439;SDS011;5776;51.814;4.510;2023-11-21T08:38:12;3.87;;;2.50;;
11439;SDS011;5776;51.814;4.510;2023-11-21T08:40:38;5.47;;;2.97;;
11439;SDS011;5776;51.814;4.510;2023-11-21T08:43:04;5.40;;;2.40;;
11439;SDS011;5776;51.814;4.510;2023-11-21T08:45:33;6.80;;;2.70;;
11439;SDS011;5776;51.814;4.510;2023-11-21T08:48:00;7.33;;;2.73;;
11439;SDS011;5776;51.814;4.510;2023-11-21T08:50:26;5.00;;;2.60;;
11439;SDS011;5776;51.814;4.510;2023-11-21T08:52:52;8.17;;;2.50;;
11439;SDS011;5776;51.814;4.510;2023-11-21T08:55:18;5.07;;;2.50;;
11439;SDS011;5776;51.814;4.510;2023-11-21T08:57:45;5.87;;;2.37;;
11439;SDS011;5776;51.814;4.510;2023-11-21T09:00:13;10.67;;;2.60;;
11439;SDS011;5776;51.814;4.510;2023-11-21T09:02:42;5.50;;;2.40;;
11439;SDS011;5776;51.814;4.510;2023-11-21T09:05:12;7.47;;;2.90;;
11439;SDS011;5776;51.814;4.510;2023-11-21T09:07:39;7.40;;;2.83;;
11439;SDS011;5776;51.814;4.510;2023-11-21T09:10:07;4.13;;;2.23;;
11439;SDS011;5776;51.814;4.510;2023-11-21T09:12:35;5.33;;;2.20;;
11439;SDS011;5776;51.814;4.510;2023-11-21T09:15:05;7.83;;;2.47;;
11439;SDS011;5776;51.814;4.510;2023-11-21T09:17:32;8.70;;;2.80;;
11439;SDS011;5776;51.814;4.510;2023-11-21T09:19:59;3.30;;;1.80;;
11439;SDS011;5776;51.814;4.510;2023-11-21T09:22:25;6.57;;;2.13;;
11439;SDS011;5776;51.814;4.510;2023-11-21T09:24:55;3.83;;;2.33;;
11439;SDS011;5776;51.814;4.510;2023-11-21T09:27:23;6.80;;;2.50;;
11439;SDS011;5776;51.814;4.510;2023-11-21T09:29:51;5.17;;;2.50;;
11439;SDS011;5776;51.814;4.510;2023-11-21T09:32:18;3.77;;;2.20;;
11439;SDS011;5776;51.814;4.510;2023-11-21T09:34:44;6.17;;;2.60;;
11439;SDS011;5776;51.814;4.510;2023-11-21T09:37:12;6.77;;;2.07;;
11439;SDS011;5776;51.814;4.510;2023-11-21T09:39:37;6.40;;;3.17;;
11439;SDS011;5776;51.814;4.510;2023-11-21T09:42:10;4.23;;;2.40;;
11439;SDS011;5776;51.814;4.510;2023-11-21T09:44:46;8.33;;;2.20;;
11439;SDS011;5776;51.814;4.510;2023-11-21T09:47:17;7.23;;;3.03;;
11439;SDS011;5776;51.814;4.510;2023-11-21T09:49:46;4.83;;;2.50;;
11439;SDS011;5776;51.814;4.510;2023-11-21T09:52:18;5.47;;;3.03;;
11439;SDS011;5776;51.814;4.510;2023-11-21T09:54:51;4.17;;;2.33;;
11439;SDS011;5776;51.814;4.510;2023-11-21T09:57:24;5.67;;;3.23;;
11439;SDS011;5776;51.814;4.510;2023-11-21T09:59:51;4.03;;;2.37;;
11439;SDS011;5776;51.814;4.510;2023-11-21T10:02:22;4.30;;;1.83;;
11439;SDS011;5776;51.814;4.510;2023-11-21T10:04:52;3.40;;;1.80;;
11439;SDS011;5776;51.814;4.510;2023-11-21T10:07:18;4.23;;;1.80;;
11439;SDS011;5776;51.814;4.510;2023-11-21T10:09:45;3.23;;;2.07;;
11439;SDS011;5776;51.814;4.510;2023-11-21T10:12:12;5.27;;;2.90;;
11439;SDS011;5776;51.814;4.510;2023-11-21T10:14:41;3.73;;;2.43;;
11439;SDS011;5776;51.814;4.510;2023-11-21T10:17:08;3.63;;;2.13;;
11439;SDS011;5776;51.814;4.510;2023-11-21T10:19:38;4.10;;;2.17;;
11439;SDS011;5776;51.814;4.510;2023-11-21T10:22:05;4.33;;;2.93;;
11439;SDS011;5776;51.814;4.510;2023-11-21T10:24:36;3.97;;;2.40;;
11439;SDS011;5776;51.814;4.510;2023-11-21T10:27:04;5.17;;;2.10;;
11439;SDS011;5776;51.814;4.510;2023-11-21T10:29:30;5.67;;;2.13;;
11439;SDS011;5776;51.814;4.510;2023-11-21T10:31:55;4.47;;;2.40;;
11439;SDS011;5776;51.814;4.510;2023-11-21T10:34:24;4.00;;;2.47;;
11439;SDS011;5776;51.814;4.510;2023-11-21T10:36:50;3.60;;;2.10;;
11439;SDS011;5776;51.814;4.510;2023-11-21T10:39:16;3.70;;;2.47;;
11439;SDS011;5776;51.814;4.510;2023-11-21T10:41:44;4.23;;;2.50;;
11439;SDS011;5776;51.814;4.510;2023-11-21T10:44:13;4.67;;;2.40;;
11439;SDS011;5776;51.814;4.510;2023-11-21T10:46:46;4.23;;;2.23;;
11439;SDS011;5776;51.814;4.510;2023-11-21T10:49:22;3.53;;;1.80;;
11439;SDS011;5776;51.814;4.510;2023-11-21T10:51:50;5.07;;;3.07;;
11439;SDS011;5776;51.814;4.510;2023-11-21T10:54:25;5.03;;;2.73;;
11439;SDS011;5776;51.814;4.510;2023-11-21T10:56:58;5.83;;;2.67;;
11439;SDS011;5776;51.814;4.510;2023-11-21T10:59:29;4.67;;;2.77;;
11439;SDS011;5776;51.814;4.510;2023-11-21T11:01:57;2.63;;;1.80;;
11439;SDS011;5776;51.814;4.510;2023-11-21T11:04:24;3.30;;;2.27;;
11439;SDS011;5776;51.814;4.510;2023-11-21T11:06:56;3.13;;;2.10;;
11439;SDS011;5776;51.814;4.510;2023-11-21T11:09:23;2.33;;;1.70;;
11439;SDS011;5776;51.814;4.510;2023-11-21T11:11:50;5.27;;;2.70;;
11439;SDS011;5776;51.814;4.510;2023-11-21T11:14:18;5.20;;;2.60;;
11439;SDS011;5776;51.814;4.510;2023-11-21T11:16:45;5.07;;;2.77;;
11439;SDS011;5776;51.814;4.510;2023-11-21T11:19:11;4.60;;;2.37;;
11439;SDS011;5776;51.814;4.510;2023-11-21T11:24:33;5.43;;;2.83;;
11439;SDS011;5776;51.814;4.510;2023-11-21T11:30:27;4.50;;;2.37;;
11439;SDS011;5776;51.814;4.510;2023-11-21T11:35:53;1.97;;;1.43;;
11439;SDS011;5776;51.814;4.510;2023-11-21T11:38:31;5.03;;;2.97;;
11439;SDS011;5776;51.814;4.510;2023-11-21T11:41:01;4.93;;;2.70;;
11439;SDS011;5776;51.814;4.510;2023-11-21T11:43:29;4.50;;;2.83;;
11439;SDS011;5776;51.814;4.510;2023-11-21T11:45:58;6.37;;;3.00;;
11439;SDS011;5776;51.814;4.510;2023-11-21T11:48:25;5.87;;;2.43;;
11439;SDS011;5776;51.814;4.510;2023-11-21T11:53:36;5.40;;;2.30;;
11439;SDS011;5776;51.814;4.510;2023-11-21T11:58:59;4.93;;;2.17;;
11439;SDS011;5776;51.814;4.510;2023-11-21T12:01:28;4.67;;;2.43;;
11439;SDS011;5776;51.814;4.510;2023-11-21T12:04:40;3.87;;;2.30;;
11439;SDS011;5776;51.814;4.510;2023-11-21T12:06:46;4.90;;;2.87;;
11439;SDS011;5776;51.814;4.510;2023-11-21T12:09:22;6.03;;;2.73;;
11439;SDS011;5776;51.814;4.510;2023-11-21T12:11:49;3.30;;;2.00;;
11439;SDS011;5776;51.814;4.510;2023-11-21T12:14:16;4.70;;;2.97;;
11439;SDS011;5776;51.814;4.510;2023-11-21T12:16:43;5.87;;;4.00;;
11439;SDS011;5776;51.814;4.510;2023-11-21T12:19:11;6.47;;;3.30;;
11439;SDS011;5776;51.814;4.510;2023-11-21T12:21:39;4.60;;;2.67;;
11439;SDS011;5776;51.814;4.510;2023-11-21T12:24:06;4.00;;;2.40;;
11439;SDS011;5776;51.814;4.510;2023-11-21T12:26:39;3.77;;;2.33;;
11439;SDS011;5776;51.814;4.510;2023-11-21T12:29:05;4.17;;;2.47;;
11439;SDS011;5776;51.814;4.510;2023-11-21T12:31:36;3.03;;;1.67;;
11439;SDS011;5776;51.814;4.510;2023-11-21T12:34:02;4.80;;;1.93;;
11439;SDS011;5776;51.814;4.510;2023-11-21T12:36:29;3.23;;;1.90;;
11439;SDS011;5776;51.814;4.510;2023-11-21T12:38:56;3.40;;;2.10;;
11439;SDS011;5776;51.814;4.510;2023-11-21T12:41:23;2.23;;;1.40;;
11439;SDS011;5776;51.814;4.510;2023-11-21T12:43:49;4.70;;;2.37;;
11439;SDS011;5776;51.814;4.510;2023-11-21T12:46:14;3.87;;;2.40;;
11439;SDS011;5776;51.814;4.510;2023-11-21T12:48:42;4.83;;;2.50;;
11439;SDS011;5776;51.814;4.510;2023-11-21T12:51:09;7.63;;;2.90;;
11439;SDS011;5776;51.814;4.510;2023-11-21T12:53:39;5.63;;;3.13;;
11439;SDS011;5776;51.814;4.510;2023-11-21T12:56:07;6.37;;;4.27;;
11439;SDS011;5776;51.814;4.510;2023-11-21T12:58:36;6.33;;;3.27;;
11439;SDS011;5776;51.814;4.510;2023-11-21T13:01:03;6.57;;;3.90;;
11439;SDS011;5776;51.814;4.510;2023-11-21T13:03:37;6.23;;;3.83;;
11439;SDS011;5776;51.814;4.510;2023-11-21T13:06:04;7.50;;;3.87;;
11439;SDS011;5776;51.814;4.510;2023-11-21T13:08:32;6.67;;;3.80;;
11439;SDS011;5776;51.814;4.510;2023-11-21T13:10:58;10.43;;;3.90;;
11439;SDS011;5776;51.814;4.510;2023-11-21T13:13:25;8.50;;;3.73;;
11439;SDS011;5776;51.814;4.510;2023-11-21T13:15:54;5.10;;;2.83;;
11439;SDS011;5776;51.814;4.510;2023-11-21T13:18:22;5.83;;;3.30;;
11439;SDS011;5776;51.814;4.510;2023-11-21T13:20:49;6.10;;;3.20;;
11439;SDS011;5776;51.814;4.510;2023-11-21T13:23:16;4.43;;;2.50;;
11439;SDS011;5776;51.814;4.510;2023-11-21T13:25:42;3.83;;;2.50;;
11439;SDS011;5776;51.814;4.510;2023-11-21T13:28:11;5.80;;;2.70;;
11439;SDS011;5776;51.814;4.510;2023-11-21T13:30:37;3.73;;;2.00;;
11439;SDS011;5776;51.814;4.510;2023-11-21T13:33:05;5.33;;;3.27;;
11439;SDS011;5776;51.814;4.510;2023-11-21T13:35:34;5.50;;;3.00;;
11439;SDS011;5776;51.814;4.510;2023-11-21T13:38:08;6.60;;;2.83;;
11439;SDS011;5776;51.814;4.510;2023-11-21T13:40:36;6.60;;;3.80;;
11439;SDS011;5776;51.814;4.510;2023-11-21T13:43:12;6.73;;;3.30;;
11439;SDS011;5776;51.814;4.510;2023-11-21T13:45:40;7.40;;;3.47;;
11439;SDS011;5776;51.814;4.510;2023-11-21T13:48:07;5.30;;;2.80;;
11439;SDS011;5776;51.814;4.510;2023-11-21T13:50:37;4.57;;;2.40;;
11439;SDS011;5776;51.814;4.510;2023-11-21T13:53:04;3.70;;;2.10;;
11439;SDS011;5776;51.814;4.510;2023-11-21T13:55:42;4.17;;;2.57;;
11439;SDS011;5776;51.814;4.510;2023-11-21T13:58:08;4.03;;;2.83;;
11439;SDS011;5776;51.814;4.510;2023-11-21T14:00:37;4.03;;;2.53;;
11439;SDS011;5776;51.814;4.510;2023-11-21T14:03:17;4.80;;;2.70;;
11439;SDS011;5776;51.814;4.510;2023-11-21T14:05:47;2.93;;;2.23;;
11439;SDS011;5776;51.814;4.510;2023-11-21T14:08:18;3.17;;;2.20;;
11439;SDS011;5776;51.814;4.510;2023-11-21T14:10:45;3.83;;;2.13;;
11439;SDS011;5776;51.814;4.510;2023-11-21T14:13:17;3.23;;;2.03;;
11439;SDS011;5776;51.814;4.510;2023-11-21T14:15:43;9.50;;;3.20;;
11439;SDS011;5776;51.814;4.510;2023-11-21T14:18:11;4.53;;;2.73;;
11439;SDS011;5776;51.814;4.510;2023-11-21T14:20:40;5.77;;;3.30;;
11439;SDS011;5776;51.814;4.510;2023-11-21T14:23:06;4.73;;;3.30;;
11439;SDS011;5776;51.814;4.510;2023-11-21T14:25:34;4.40;;;2.53;;
11439;SDS011;5776;51.814;4.510;2023-11-21T14:28:01;5.10;;;3.30;;
11439;SDS011;5776;51.814;4.510;2023-11-21T14:30:29;5.67;;;3.40;;
11439;SDS011;5776;51.814;4.510;2023-11-21T14:32:58;6.10;;;3.37;;
11439;SDS011;5776;51.814;4.510;2023-11-21T14:35:24;8.23;;;3.87;;
11439;SDS011;5776;51.814;4.510;2023-11-21T14:37:52;10.03;;;5.30;;
11439;SDS011;5776;51.814;4.510;2023-11-21T14:40:18;4.83;;;3.33;;
11439;SDS011;5776;51.814;4.510;2023-11-21T14:42:52;8.67;;;4.17;;
11439;SDS011;5776;51.814;4.510;2023-11-21T14:45:19;6.83;;;4.33;;
11439;SDS011;5776;51.814;4.510;2023-11-21T14:47:46;6.77;;;4.20;;
11439;SDS011;5776;51.814;4.510;2023-11-21T14:50:21;9.37;;;5.13;;
11439;SDS011;5776;51.814;4.510;2023-11-21T14:53:02;9.43;;;4.27;;
11439;SDS011;5776;51.814;4.510;2023-11-21T14:55:34;8.50;;;4.93;;
11439;SDS011;5776;51.814;4.510;2023-11-21T14:58:20;6.30;;;4.07;;
11439;SDS011;5776;51.814;4.510;2023-11-21T15:00:55;6.60;;;3.60;;
11439;SDS011;5776;51.814;4.510;2023-11-21T15:03:24;10.40;;;6.20;;
11439;SDS011;5776;51.814;4.510;2023-11-21T15:05:59;7.47;;;4.43;;
11439;SDS011;5776;51.814;4.510;2023-11-21T15:08:54;8.57;;;5.40;;
11439;SDS011;5776;51.814;4.510;2023-11-21T15:11:33;10.03;;;5.43;;
11439;SDS011;5776;51.814;4.510;2023-11-21T15:14:00;9.57;;;5.60;;
11439;SDS011;5776;51.814;4.510;2023-11-21T15:16:28;9.50;;;5.73;;
11439;SDS011;5776;51.814;4.510;2023-11-21T15:18:54;9.97;;;5.73;;